Terminal Aerodrome Forecast
Issued by NWS Omaha/Valley, NE

Home | Current Version | Previous Version | Text Only | Print | Product List | Glossary On
Versions: 1 2 3 4 5 6 7 8 9 10 11 12 13 14 15 16 17 18 19 20 21 22 23 24 25 26 27 28 29 30 31 32 33 34 35 36 37 38 39
000
FTUS43 KOAX 230520
TAFLNK
TAF
KLNK 230520Z 2306/2406 19010KT P6SM OVC015
     FM230900 19007KT 5SM BR VCSH OVC008
     FM231400 32009KT 5SM BR VCSH SCT007 OVC015
     FM231600 34018G28KT P6SM SCT015 OVC025 PROB30 2316/2322 5SM
      -SHRA BKN015
     FM232200 34020G29KT P6SM BKN035=

USA.gov is the U.S. government's official web portal to all federal, state and local government web resources and services.